createdAt,value
2023-04-09T00:01:15.499Z,35.40
2023-04-09T00:03:43.369Z,35.50
2023-04-09T00:06:11.751Z,35.00
2023-04-09T00:08:39.626Z,36.40
2023-04-09T00:11:07.536Z,33.80
2023-04-09T00:13:39.555Z,34.70
2023-04-09T00:16:08.697Z,36.60
2023-04-09T00:18:36.925Z,35.40
2023-04-09T00:21:05.092Z,33.90
2023-04-09T00:23:32.907Z,36.00
2023-04-09T00:26:01.368Z,34.70
2023-04-09T00:28:29.208Z,37.90
2023-04-09T00:30:57.283Z,37.00
2023-04-09T00:33:25.748Z,33.20
2023-04-09T00:35:54.172Z,34.40
2023-04-09T00:38:22.068Z,32.30
2023-04-09T00:40:50.802Z,36.50
2023-04-09T00:43:18.720Z,36.60
2023-04-09T00:45:47.499Z,34.10
2023-04-09T00:48:17.126Z,34.60
2023-04-09T00:50:45.031Z,34.50
2023-04-09T00:53:13.071Z,33.80
2023-04-09T00:55:41.482Z,35.80
2023-04-09T00:58:09.453Z,33.90
2023-04-09T01:00:37.543Z,33.10
2023-04-09T01:03:07.059Z,33.10
2023-04-09T01:05:51.095Z,33.60
2023-04-09T01:08:54.608Z,32.70
2023-04-09T01:11:31.458Z,32.00
2023-04-09T01:14:03.611Z,33.40
2023-04-09T01:16:37.040Z,34.00
2023-04-09T01:19:29.531Z,32.50
2023-04-09T01:21:58.517Z,32.50
2023-04-09T01:24:47.559Z,33.30
2023-04-09T01:27:25.179Z,38.80
2023-04-09T01:29:58.741Z,35.70
2023-04-09T01:32:26.978Z,34.30
2023-04-09T01:34:55.930Z,35.70
2023-04-09T01:37:24.840Z,37.40
2023-04-09T01:39:52.915Z,31.50
2023-04-09T01:42:21.330Z,34.10
2023-04-09T01:44:49.498Z,34.90
2023-04-09T01:47:17.449Z,39.10
2023-04-09T01:49:45.873Z,36.80
2023-04-09T01:52:14.664Z,38.50
2023-04-09T01:54:43.021Z,36.60
2023-04-09T01:57:11.028Z,34.10
2023-04-09T01:59:38.881Z,35.50
2023-04-09T02:02:12.371Z,37.00
2023-04-09T02:04:48.276Z,37.50
2023-04-09T02:07:38.476Z,37.10
2023-04-09T02:10:08.625Z,35.00
2023-04-09T02:12:40.594Z,35.20
2023-04-09T02:15:09.449Z,36.30
2023-04-09T02:17:37.360Z,35.20
2023-04-09T02:20:06.061Z,33.80
2023-04-09T02:22:33.900Z,35.30
2023-04-09T02:25:01.814Z,34.90
2023-04-09T02:27:29.738Z,34.10
2023-04-09T02:29:57.663Z,36.30
2023-04-09T02:32:25.603Z,38.20
2023-04-09T02:34:53.416Z,36.90
2023-04-09T02:37:21.381Z,38.20
2023-04-09T02:39:49.355Z,35.60
2023-04-09T02:42:17.221Z,36.10
2023-04-09T02:44:45.178Z,35.50
2023-04-09T02:47:14.114Z,34.50
2023-04-09T02:49:42.125Z,35.10
2023-04-09T02:52:11.330Z,36.80
2023-04-09T02:54:39.342Z,36.40
2023-04-09T02:57:07.389Z,37.50
2023-04-09T02:59:35.914Z,36.80
2023-04-09T03:02:05.065Z,39.80
2023-04-09T03:04:33.158Z,38.60
2023-04-09T03:07:00.971Z,39.00
2023-04-09T03:09:30.344Z,42.80
2023-04-09T03:11:58.241Z,37.40
2023-04-09T03:14:26.110Z,39.40
2023-04-09T03:16:53.937Z,38.40
2023-04-09T03:19:22.009Z,39.00
2023-04-09T03:21:51.345Z,40.40
2023-04-09T03:24:20.477Z,38.60
2023-04-09T03:26:49.118Z,39.20
2023-04-09T03:29:17.159Z,36.00
2023-04-09T03:31:45.336Z,40.10
2023-04-09T03:34:13.306Z,38.80
2023-04-09T03:36:41.266Z,39.20
2023-04-09T03:39:14.593Z,38.10
2023-04-09T03:41:44.475Z,41.00
2023-04-09T03:44:15.379Z,41.10
2023-04-09T03:46:56.068Z,41.40
2023-04-09T03:49:24.469Z,39.50
2023-04-09T03:51:53.058Z,41.50
2023-04-09T03:54:21.223Z,41.90
2023-04-09T03:56:49.380Z,37.70
2023-04-09T03:59:17.468Z,40.10
2023-04-09T04:01:48.140Z,38.50
2023-04-09T04:04:18.869Z,38.60
2023-04-09T04:06:52.728Z,41.00
2023-04-09T04:09:30.988Z,41.70
2023-04-09T04:12:08.514Z,38.90
2023-04-09T04:15:02.766Z,40.20
2023-04-09T04:17:37.982Z,42.30
2023-04-09T04:20:10.447Z,38.70
2023-04-09T04:22:44.554Z,41.10
2023-04-09T04:25:12.768Z,40.60
2023-04-09T04:27:43.968Z,37.40
2023-04-09T04:30:12.307Z,38.90
2023-04-09T04:32:51.003Z,38.80
2023-04-09T04:35:19.120Z,38.30
2023-04-09T04:37:50.050Z,41.50
2023-04-09T04:40:18.769Z,39.50
2023-04-09T04:42:47.205Z,38.60
2023-04-09T04:45:16.331Z,41.50
2023-04-09T04:47:48.814Z,41.50
2023-04-09T04:50:16.932Z,42.00
2023-04-09T04:52:53.989Z,38.50
2023-04-09T04:55:22.559Z,40.30
2023-04-09T04:57:52.560Z,39.30
2023-04-09T05:00:22.176Z,41.90
2023-04-09T05:02:50.150Z,43.10
2023-04-09T05:05:31.036Z,41.90
2023-04-09T05:07:59.004Z,40.70
2023-04-09T05:10:26.828Z,41.40
2023-04-09T05:12:54.758Z,36.50
2023-04-09T05:15:28.709Z,37.60
2023-04-09T05:17:56.942Z,40.00
2023-04-09T05:20:27.229Z,41.80
2023-04-09T05:23:03.953Z,36.60
2023-04-09T05:25:35.626Z,38.70
2023-04-09T05:28:03.888Z,41.00
2023-04-09T05:30:32.075Z,41.00
2023-04-09T05:33:01.489Z,37.70
2023-04-09T05:35:29.385Z,37.20
2023-04-09T05:37:57.576Z,39.40
2023-04-09T05:40:25.622Z,41.40
2023-04-09T05:42:53.971Z,39.90
2023-04-09T05:45:34.812Z,39.30
2023-04-09T05:48:02.998Z,39.30
2023-04-09T05:50:31.898Z,43.70
2023-04-09T05:53:05.093Z,46.50
2023-04-09T05:55:38.775Z,44.30
2023-04-09T05:58:07.244Z,42.90
2023-04-09T06:00:35.420Z,41.70
2023-04-09T06:03:04.748Z,42.10
2023-04-09T06:05:32.786Z,44.80
2023-04-09T06:08:00.860Z,38.00
2023-04-09T06:10:28.679Z,40.20
2023-04-09T06:12:56.532Z,44.60
2023-04-09T06:15:24.476Z,43.60
2023-04-09T06:17:52.302Z,40.30
2023-04-09T06:20:20.309Z,39.20
2023-04-09T06:22:48.237Z,38.10
2023-04-09T06:25:16.128Z,37.40
2023-04-09T06:27:44.116Z,38.90
2023-04-09T06:30:12.341Z,38.00
2023-04-09T06:32:53.047Z,44.30
2023-04-09T06:35:21.553Z,39.50
2023-04-09T06:37:49.404Z,35.90
2023-04-09T06:40:17.382Z,35.80
2023-04-09T06:42:45.522Z,32.20
2023-04-09T06:45:21.342Z,33.70
2023-04-09T06:47:49.401Z,33.40
2023-04-09T06:50:17.267Z,40.10
2023-04-09T06:52:45.140Z,32.70
2023-04-09T06:55:13.088Z,34.50
2023-04-09T06:57:41.577Z,37.50
2023-04-09T07:00:10.467Z,34.80
2023-04-09T07:02:38.742Z,39.30
2023-04-09T07:05:06.946Z,36.30
2023-04-09T07:07:34.908Z,35.30
2023-04-09T07:10:02.727Z,38.00
2023-04-09T07:12:32.430Z,37.30
2023-04-09T07:15:01.957Z,35.00
2023-04-09T07:17:31.610Z,33.50
2023-04-09T07:19:59.579Z,37.60
2023-04-09T07:22:29.197Z,36.10
2023-04-09T07:24:57.371Z,35.90
2023-04-09T07:27:28.674Z,34.20
2023-04-09T07:29:57.945Z,31.60
2023-04-09T07:32:28.168Z,32.20
2023-04-09T07:34:57.372Z,32.00
2023-04-09T07:37:26.096Z,32.30
2023-04-09T07:39:54.104Z,32.40
2023-04-09T07:42:22.290Z,36.40
2023-04-09T07:44:50.435Z,35.90
2023-04-09T07:47:18.396Z,36.60
2023-04-09T07:49:47.055Z,36.10
2023-04-09T07:52:15.018Z,42.10
2023-04-09T07:54:43.032Z,42.10
2023-04-09T07:57:11.026Z,39.90
2023-04-09T07:59:39.046Z,37.60
2023-04-09T08:02:07.695Z,40.50
2023-04-09T08:04:35.889Z,36.40
2023-04-09T08:07:03.993Z,32.30
2023-04-09T08:09:31.852Z,33.90
2023-04-09T08:11:59.879Z,32.50
2023-04-09T08:14:27.821Z,34.10
2023-04-09T08:16:56.426Z,34.70
2023-04-09T08:19:24.857Z,30.50
2023-04-09T08:21:52.912Z,32.00
2023-04-09T08:24:21.450Z,31.60
2023-04-09T08:26:49.416Z,34.10
2023-04-09T08:29:17.287Z,34.50
2023-04-09T08:31:45.542Z,32.70
2023-04-09T08:34:15.230Z,34.00
2023-04-09T08:36:46.530Z,34.60
2023-04-09T08:39:16.032Z,32.30
2023-04-09T08:41:45.538Z,31.10
2023-04-09T08:44:13.583Z,31.80
2023-04-09T08:46:41.989Z,32.40
2023-04-09T08:49:11.025Z,29.90
2023-04-09T08:51:39.427Z,29.30
2023-04-09T08:54:07.662Z,31.60
2023-04-09T08:56:35.820Z,32.70
2023-04-09T08:59:03.743Z,34.90
2023-04-09T09:01:32.663Z,31.80
2023-04-09T09:04:01.826Z,32.20
2023-04-09T09:06:33.230Z,36.40
2023-04-09T09:09:12.547Z,40.90
2023-04-09T09:11:42.786Z,37.00
2023-04-09T09:14:12.924Z,37.00
2023-04-09T09:16:43.482Z,32.80
2023-04-09T09:19:26.599Z,37.20
2023-04-09T09:21:59.722Z,35.00
2023-04-09T09:24:27.975Z,33.10
2023-04-09T09:26:57.337Z,31.30
2023-04-09T09:29:25.994Z,29.70
2023-04-09T09:31:55.178Z,40.60
2023-04-09T09:34:24.626Z,49.00
2023-04-09T09:36:52.594Z,40.10
2023-04-09T09:39:22.175Z,43.80
2023-04-09T09:42:07.829Z,39.80
2023-04-09T09:44:35.845Z,37.60
2023-04-09T09:47:04.130Z,33.50
2023-04-09T09:49:32.146Z,32.30
2023-04-09T09:52:03.165Z,31.20
2023-04-09T09:54:39.983Z,30.40
2023-04-09T09:57:10.340Z,31.00
2023-04-09T09:59:43.562Z,32.80
2023-04-09T10:02:25.353Z,34.10
2023-04-09T10:04:53.671Z,36.00
2023-04-09T10:07:22.531Z,28.90
2023-04-09T10:09:53.025Z,31.80
2023-04-09T10:12:25.333Z,32.40
2023-04-09T10:14:55.969Z,31.10
2023-04-09T10:17:23.941Z,32.00
2023-04-09T10:20:05.427Z,26.90
2023-04-09T10:22:34.900Z,27.20
2023-04-09T10:25:04.632Z,29.10
2023-04-09T10:27:32.691Z,27.30
2023-04-09T10:30:01.795Z,26.70
2023-04-09T10:32:36.302Z,25.30
2023-04-09T10:35:04.713Z,28.30
2023-04-09T10:37:35.576Z,26.90
2023-04-09T10:40:04.717Z,26.00
2023-04-09T10:42:37.231Z,25.20
2023-04-09T10:45:09.399Z,27.80
2023-04-09T10:47:42.738Z,27.30
2023-04-09T10:50:27.973Z,29.10
2023-04-09T10:52:58.250Z,29.60
2023-04-09T10:55:38.273Z,28.00
2023-04-09T10:58:12.368Z,26.90
2023-04-09T11:00:44.224Z,27.90
2023-04-09T11:03:32.322Z,26.80
2023-04-09T11:06:09.428Z,26.80
2023-04-09T11:08:38.621Z,26.70
2023-04-09T11:11:06.607Z,27.60
2023-04-09T11:13:34.709Z,28.60
2023-04-09T11:16:06.861Z,31.50
2023-04-09T11:18:37.078Z,34.30
2023-04-09T11:21:05.230Z,30.40
2023-04-09T11:23:33.522Z,30.60
2023-04-09T11:26:02.369Z,30.20
2023-04-09T11:28:30.309Z,31.80
2023-04-09T11:30:58.176Z,33.70
2023-04-09T11:33:33.266Z,32.10
2023-04-09T11:36:04.523Z,33.80
2023-04-09T11:38:32.552Z,33.20
2023-04-09T11:41:02.163Z,32.20
2023-04-09T11:43:30.238Z,32.00
2023-04-09T11:45:59.156Z,32.80
2023-04-09T11:48:27.195Z,34.60
2023-04-09T11:50:55.232Z,35.40
2023-04-09T11:53:23.893Z,34.90
2023-04-09T11:55:53.160Z,35.80
2023-04-09T11:58:26.315Z,33.70
2023-04-09T12:00:56.197Z,33.10
2023-04-09T12:03:34.283Z,37.20
2023-04-09T12:06:04.089Z,35.90
2023-04-09T12:08:35.132Z,34.90
2023-04-09T12:11:10.678Z,35.20
2023-04-09T12:13:43.235Z,32.50
2023-04-09T12:16:12.935Z,34.60
2023-04-09T12:18:41.243Z,36.00
2023-04-09T12:21:09.130Z,37.00
2023-04-09T12:23:37.056Z,34.70
2023-04-09T12:26:05.017Z,31.90
2023-04-09T12:28:32.858Z,36.20
2023-04-09T12:31:00.789Z,32.90
2023-04-09T12:33:28.614Z,31.90
2023-04-09T12:35:58.401Z,31.60
2023-04-09T12:38:26.897Z,33.70
2023-04-09T12:40:54.865Z,37.90
2023-04-09T12:43:22.822Z,35.10
2023-04-09T12:45:51.557Z,35.50
2023-04-09T12:48:19.372Z,34.80
2023-04-09T12:50:47.184Z,30.20
2023-04-09T12:53:15.386Z,32.70
2023-04-09T12:55:43.221Z,35.00
2023-04-09T12:58:11.148Z,31.00
2023-04-09T13:00:38.961Z,31.20
2023-04-09T13:03:07.084Z,28.40
2023-04-09T13:05:37.649Z,34.10
2023-04-09T13:08:05.477Z,31.00
2023-04-09T13:10:33.467Z,32.10
2023-04-09T13:13:01.475Z,33.00
2023-04-09T13:15:29.382Z,29.90
2023-04-09T13:17:57.562Z,32.70
2023-04-09T13:20:25.586Z,34.40
2023-04-09T13:22:53.420Z,33.20
2023-04-09T13:25:21.377Z,34.70
2023-04-09T13:27:49.230Z,33.60
2023-04-09T13:30:17.125Z,35.40
2023-04-09T13:32:45.096Z,37.20
2023-04-09T13:35:13.029Z,40.20
2023-04-09T13:37:41.035Z,36.30
2023-04-09T13:40:09.345Z,35.80
2023-04-09T13:42:39.859Z,40.30
2023-04-09T13:45:07.930Z,37.70
2023-04-09T13:47:35.921Z,37.10
2023-04-09T13:50:04.230Z,35.30
2023-04-09T13:52:32.774Z,35.50
2023-04-09T13:55:00.738Z,37.50
2023-04-09T13:57:28.641Z,41.50
2023-04-09T13:59:56.538Z,38.00
2023-04-09T14:02:24.669Z,39.70
2023-04-09T14:04:52.748Z,39.80
2023-04-09T14:07:20.633Z,38.40
2023-04-09T14:09:50.762Z,36.30
2023-04-09T14:12:19.066Z,44.00
2023-04-09T14:14:47.107Z,48.60
2023-04-09T14:17:15.028Z,38.10
2023-04-09T14:19:42.841Z,39.80
2023-04-09T14:22:11.585Z,40.30
2023-04-09T14:24:42.386Z,46.00
2023-04-09T14:27:10.244Z,38.30
2023-04-09T14:29:38.073Z,40.50
2023-04-09T14:32:06.429Z,52.30
2023-04-09T14:34:34.454Z,56.30
2023-04-09T14:37:02.727Z,53.00
2023-04-09T14:39:30.800Z,46.70
2023-04-09T14:41:58.648Z,46.70
2023-04-09T14:44:26.956Z,47.10
2023-04-09T14:46:55.191Z,44.00
2023-04-09T14:49:23.560Z,38.90
2023-04-09T14:51:52.001Z,38.90
2023-04-09T14:54:19.871Z,37.70
2023-04-09T14:56:47.769Z,35.60
2023-04-09T14:59:15.639Z,37.60
2023-04-09T15:01:43.756Z,37.20
2023-04-09T15:04:11.813Z,35.90
2023-04-09T15:06:39.831Z,38.00
2023-04-09T15:09:07.700Z,39.70
2023-04-09T15:11:35.542Z,42.60
2023-04-09T15:14:03.466Z,38.20
2023-04-09T15:16:33.393Z,37.10
2023-04-09T15:19:02.685Z,37.40
2023-04-09T15:21:31.742Z,33.00
2023-04-09T15:24:00.307Z,35.40
2023-04-09T15:26:28.264Z,35.00
2023-04-09T15:29:04.001Z,32.10
2023-04-09T15:31:32.705Z,30.70
2023-04-09T15:34:00.991Z,33.30
2023-04-09T15:36:30.100Z,34.90
2023-04-09T15:38:58.124Z,34.10
2023-04-09T15:41:26.903Z,31.30
2023-04-09T15:43:54.753Z,33.50
2023-04-09T15:46:22.723Z,31.90
2023-04-09T15:48:50.914Z,38.40
2023-04-09T15:51:18.890Z,35.10
2023-04-09T15:53:46.735Z,37.60
2023-04-09T15:56:15.430Z,35.70
2023-04-09T15:58:43.548Z,35.30
2023-04-09T16:01:11.549Z,34.80
2023-04-09T16:03:41.029Z,36.40
2023-04-09T16:06:13.330Z,35.30
2023-04-09T16:08:41.357Z,34.50
2023-04-09T16:11:09.572Z,40.90
2023-04-09T16:13:37.449Z,42.00
2023-04-09T16:16:06.986Z,52.10
2023-04-09T16:18:35.234Z,54.10
2023-04-09T16:21:03.208Z,50.20
2023-04-09T16:23:32.664Z,48.50
2023-04-09T16:26:00.558Z,38.00
2023-04-09T16:28:28.391Z,46.50
2023-04-09T16:30:56.248Z,39.10
2023-04-09T16:33:24.195Z,38.70
2023-04-09T16:35:52.059Z,37.60
2023-04-09T16:38:20.027Z,36.70
2023-04-09T16:40:48.087Z,38.20
2023-04-09T16:43:16.161Z,38.10
2023-04-09T16:45:44.266Z,36.10
2023-04-09T16:48:12.899Z,38.40
2023-04-09T16:50:41.188Z,34.20
2023-04-09T16:53:09.830Z,32.90
2023-04-09T16:55:38.023Z,33.10
2023-04-09T16:58:06.248Z,36.90
2023-04-09T17:00:35.385Z,37.20
2023-04-09T17:03:03.819Z,37.30
2023-04-09T17:05:32.267Z,37.90
2023-04-09T17:08:00.572Z,41.80
2023-04-09T17:10:28.734Z,41.20
2023-04-09T17:12:57.020Z,63.10
2023-04-09T17:15:25.875Z,64.30
2023-04-09T17:17:54.019Z,68.30
2023-04-09T17:20:22.736Z,61.80
2023-04-09T17:22:50.881Z,60.20
2023-04-09T17:25:20.442Z,57.90
2023-04-09T17:27:48.306Z,67.50
2023-04-09T17:30:16.284Z,66.20
2023-04-09T17:32:44.331Z,56.70
2023-04-09T17:35:12.281Z,51.50
2023-04-09T17:37:40.146Z,53.40
2023-04-09T17:40:09.012Z,50.60
2023-04-09T17:42:37.147Z,57.40
2023-04-09T17:45:05.688Z,61.00
2023-04-09T17:47:33.657Z,59.40
2023-04-09T17:50:01.804Z,65.90
2023-04-09T17:52:36.512Z,56.40
2023-04-09T17:55:08.681Z,63.30
2023-04-09T17:57:36.662Z,58.00
2023-04-09T18:00:05.417Z,52.30
2023-04-09T18:02:34.717Z,54.70
2023-04-09T18:05:04.827Z,64.70
2023-04-09T18:07:36.013Z,53.20
2023-04-09T18:10:04.327Z,65.90
2023-04-09T18:12:32.628Z,44.00
2023-04-09T18:15:00.806Z,55.00
2023-04-09T18:17:29.016Z,51.80
2023-04-09T18:20:00.073Z,52.70
2023-04-09T18:22:28.274Z,46.90
2023-04-09T18:24:56.548Z,48.90
2023-04-09T18:27:24.529Z,43.10
2023-04-09T18:29:52.906Z,45.40
2023-04-09T18:32:21.765Z,46.90
2023-04-09T18:34:50.818Z,40.80
2023-04-09T18:37:19.587Z,44.20
2023-04-09T18:39:48.110Z,46.60
2023-04-09T18:42:16.036Z,40.10
2023-04-09T18:44:45.663Z,39.10
2023-04-09T18:47:13.614Z,41.00
2023-04-09T18:49:41.463Z,41.40
2023-04-09T18:52:10.280Z,40.50
2023-04-09T18:54:38.935Z,40.50
2023-04-09T18:57:07.473Z,44.00
2023-04-09T18:59:35.987Z,41.60
2023-04-09T19:02:05.028Z,38.20
2023-04-09T19:04:39.785Z,39.40
2023-04-09T19:07:08.264Z,38.10
2023-04-09T19:09:37.447Z,39.10
2023-04-09T19:12:05.844Z,40.20
2023-04-09T19:14:36.446Z,42.70
2023-04-09T19:17:04.316Z,50.60
2023-04-09T19:19:33.218Z,63.10
2023-04-09T19:22:01.754Z,65.20
2023-04-09T19:24:29.711Z,54.10
2023-04-09T19:26:57.927Z,49.90
2023-04-09T19:29:26.069Z,50.10
2023-04-09T19:31:54.244Z,46.90
2023-04-09T19:34:22.438Z,44.60
2023-04-09T19:36:50.287Z,47.50
2023-04-09T19:39:18.862Z,48.90
2023-04-09T19:41:46.922Z,48.10
2023-04-09T19:44:15.368Z,46.50
2023-04-09T19:46:43.568Z,46.80
2023-04-09T19:49:11.452Z,57.90
2023-04-09T19:51:39.308Z,67.00
2023-04-09T19:54:09.668Z,68.90
2023-04-09T19:56:38.283Z,68.20
2023-04-09T19:59:06.571Z,57.40
2023-04-09T20:01:34.859Z,53.50
2023-04-09T20:04:02.981Z,52.60
2023-04-09T20:06:30.902Z,46.40
2023-04-09T20:08:59.374Z,49.60
2023-04-09T20:11:27.261Z,46.60
2023-04-09T20:13:55.129Z,45.90
2023-04-09T20:16:22.969Z,46.10
2023-04-09T20:18:51.122Z,48.30
2023-04-09T20:21:19.053Z,49.10
2023-04-09T20:23:47.167Z,48.80
2023-04-09T20:26:15.080Z,49.20
2023-04-09T20:28:42.995Z,49.10
2023-04-09T20:31:10.979Z,55.80
2023-04-09T20:33:38.889Z,65.30
2023-04-09T20:36:15.236Z,75.00
2023-04-09T20:38:43.402Z,71.80
2023-04-09T20:41:11.341Z,65.70
2023-04-09T20:43:39.342Z,61.70
2023-04-09T20:46:07.327Z,57.50
2023-04-09T20:48:35.406Z,54.70
2023-04-09T20:51:09.709Z,52.50
2023-04-09T20:53:38.526Z,47.20
2023-04-09T20:56:07.325Z,43.40
2023-04-09T20:58:35.701Z,42.60
2023-04-09T21:01:09.577Z,46.50
2023-04-09T21:03:39.059Z,48.90
2023-04-09T21:06:08.321Z,50.70
2023-04-09T21:08:37.284Z,52.60
2023-04-09T21:11:05.487Z,57.50
2023-04-09T21:13:40.493Z,59.60
2023-04-09T21:16:18.879Z,62.30
2023-04-09T21:18:46.798Z,67.00
2023-04-09T21:21:14.808Z,73.30
2023-04-09T21:23:42.648Z,62.60
2023-04-09T21:26:11.494Z,76.50
2023-04-09T21:28:39.400Z,74.60
2023-04-09T21:31:07.424Z,69.10
2023-04-09T21:33:35.486Z,68.80
2023-04-09T21:36:04.593Z,61.30
2023-04-09T21:38:32.446Z,60.30
2023-04-09T21:41:01.895Z,54.90
2023-04-09T21:43:31.930Z,54.20
2023-04-09T21:45:59.816Z,51.80
2023-04-09T21:48:29.061Z,52.80
2023-04-09T21:51:00.023Z,57.20
2023-04-09T21:53:28.240Z,59.00
2023-04-09T21:55:56.363Z,53.30
2023-04-09T21:58:24.216Z,53.40
2023-04-09T22:00:52.217Z,57.50
2023-04-09T22:03:20.413Z,58.50
2023-04-09T22:05:48.559Z,56.10
2023-04-09T22:08:16.415Z,58.00
2023-04-09T22:10:44.374Z,65.30
2023-04-09T22:13:12.289Z,67.10
2023-04-09T22:15:41.732Z,60.80
2023-04-09T22:18:09.693Z,58.60
2023-04-09T22:20:37.596Z,57.80
2023-04-09T22:23:05.718Z,51.10
2023-04-09T22:25:35.099Z,48.10
2023-04-09T22:28:05.698Z,48.10
2023-04-09T22:30:33.551Z,47.20
2023-04-09T22:33:02.334Z,49.40
2023-04-09T22:35:30.552Z,54.50
2023-04-09T22:37:59.439Z,57.40
2023-04-09T22:40:27.275Z,50.90
2023-04-09T22:42:55.129Z,50.60
2023-04-09T22:45:22.961Z,56.50
2023-04-09T22:47:50.855Z,55.20
2023-04-09T22:50:18.790Z,50.20
2023-04-09T22:52:46.748Z,44.10
2023-04-09T22:55:14.592Z,44.80
2023-04-09T22:57:43.067Z,44.70
2023-04-09T23:00:11.537Z,41.50
2023-04-09T23:02:39.602Z,44.80
2023-04-09T23:05:08.398Z,40.90
2023-04-09T23:07:36.307Z,41.00
2023-04-09T23:10:04.467Z,43.40
2023-04-09T23:12:32.353Z,41.50
2023-04-09T23:15:00.322Z,43.00
2023-04-09T23:17:28.164Z,41.60
2023-04-09T23:19:56.120Z,44.50
2023-04-09T23:22:24.371Z,44.20
2023-04-09T23:24:52.230Z,39.50
2023-04-09T23:27:20.270Z,41.70
2023-04-09T23:29:48.137Z,43.70
2023-04-09T23:32:16.246Z,47.90
2023-04-09T23:34:44.110Z,48.60
2023-04-09T23:37:12.020Z,50.90
2023-04-09T23:39:39.843Z,53.70
2023-04-09T23:42:07.754Z,49.40
2023-04-09T23:44:35.621Z,47.20
2023-04-09T23:47:05.902Z,46.70
2023-04-09T23:49:33.949Z,47.00
2023-04-09T23:52:02.015Z,46.70
2023-04-09T23:54:30.753Z,47.30
2023-04-09T23:56:59.697Z,49.60
2023-04-09T23:59:27.628Z,50.00
